createdAt,value
2017-07-23T00:01:58.654Z,98709.48
2017-07-23T00:04:26.133Z,98705.05
2017-07-23T00:06:53.569Z,98708.34
2017-07-23T00:09:21.050Z,98698.84
2017-07-23T00:11:48.544Z,98705.23
2017-07-23T00:14:16.018Z,98702.52
2017-07-23T00:16:43.483Z,98696.13
2017-07-23T00:19:10.957Z,98696.69
2017-07-23T00:21:38.412Z,98693.77
2017-07-23T00:24:05.890Z,98686.05
2017-07-23T00:26:33.369Z,98691.09
2017-07-23T00:29:00.843Z,98699.81
2017-07-23T00:31:28.328Z,98704.45
2017-07-23T00:33:55.842Z,98708.52
2017-07-23T00:36:23.332Z,98716.27
2017-07-23T00:38:50.787Z,98710.05
2017-07-23T00:41:18.273Z,98705.98
2017-07-23T00:43:45.734Z,98716.09
2017-07-23T00:46:13.196Z,98724.45
2017-07-23T00:48:40.644Z,98718.23
2017-07-23T00:51:08.110Z,98726.78
2017-07-23T00:53:35.594Z,98728.71
2017-07-23T00:56:03.052Z,98736.07
2017-07-23T00:58:30.549Z,98744.81
2017-07-23T01:00:58.010Z,98753.55
2017-07-23T01:03:25.511Z,98753.70
2017-07-23T01:05:52.965Z,98749.24
2017-07-23T01:08:20.454Z,98747.71
2017-07-23T01:10:47.916Z,98746.17
2017-07-23T01:13:15.393Z,98756.64
2017-07-23T01:15:42.847Z,98741.49
2017-07-23T01:18:10.317Z,98762.46
2017-07-23T01:20:37.785Z,98774.47
2017-07-23T01:23:05.242Z,98761.67
2017-07-23T01:25:32.709Z,98758.95
2017-07-23T01:28:00.188Z,98760.88
2017-07-23T01:30:27.671Z,98759.71
2017-07-23T01:32:55.111Z,98753.31
2017-07-23T01:35:22.594Z,98750.81
2017-07-23T01:37:50.052Z,98747.70
2017-07-23T01:40:18.406Z,98746.14
2017-07-23T01:42:45.854Z,98738.98
2017-07-23T01:45:13.345Z,98744.59
2017-07-23T01:47:40.806Z,98742.45
2017-07-23T01:50:08.294Z,98737.02
2017-07-23T01:55:09.730Z,98742.05
2017-07-23T01:57:37.195Z,98743.41
2017-07-23T02:00:04.682Z,98739.91
2017-07-23T02:02:32.166Z,98744.37
2017-07-23T02:04:59.623Z,98750.58
2017-07-23T02:07:27.089Z,98750.98
2017-07-23T02:09:54.525Z,98749.41
2017-07-23T02:12:21.996Z,98748.05
2017-07-23T02:14:49.446Z,98743.59
2017-07-23T02:17:16.926Z,98759.52
2017-07-23T02:19:44.378Z,98740.30
2017-07-23T02:22:11.863Z,98742.63
2017-07-23T02:24:39.367Z,98744.58
2017-07-23T02:27:06.824Z,98751.55
2017-07-23T02:29:34.298Z,98748.61
2017-07-23T02:32:01.776Z,98756.97
2017-07-23T02:34:29.258Z,98749.97
2017-07-23T02:36:56.706Z,98758.89
2017-07-23T02:39:24.176Z,98757.54
2017-07-23T02:41:51.629Z,98755.22
2017-07-23T02:44:19.115Z,98763.75
2017-07-23T02:46:46.606Z,98756.19
2017-07-23T02:49:14.225Z,98759.86
2017-07-23T02:51:42.290Z,98763.14
2017-07-23T02:54:09.742Z,98766.43
2017-07-23T02:56:37.230Z,98764.10
2017-07-23T02:59:04.673Z,98772.45
2017-07-23T03:01:32.155Z,98767.20
2017-07-23T03:03:59.604Z,98779.02
2017-07-23T03:06:27.954Z,98778.06
2017-07-23T03:08:55.397Z,98783.67
2017-07-23T03:11:22.842Z,98797.45
2017-07-23T03:13:51.522Z,98796.09
2017-07-23T03:16:18.971Z,98793.94
2017-07-23T03:18:46.440Z,98796.05
2017-07-23T03:21:13.882Z,98803.05
2017-07-23T03:23:41.374Z,98803.63
2017-07-23T03:26:08.818Z,98800.91
2017-07-23T03:28:36.286Z,98793.70
2017-07-23T03:31:03.733Z,98800.28
2017-07-23T03:33:31.229Z,98804.00
2017-07-23T03:35:58.680Z,98809.98
2017-07-23T03:38:26.351Z,98806.89
2017-07-23T03:40:53.805Z,98810.95
2017-07-23T03:43:21.259Z,98815.03
2017-07-23T03:45:48.728Z,98812.49
2017-07-23T03:48:16.172Z,98813.66
2017-07-23T03:50:43.669Z,98805.91
2017-07-23T03:53:11.142Z,98810.34
2017-07-23T03:55:38.600Z,98820.05
2017-07-23T03:58:06.073Z,98814.80
2017-07-23T04:00:33.518Z,98826.83
2017-07-23T04:03:00.987Z,98825.83
2017-07-23T04:05:28.459Z,98822.92
2017-07-23T04:07:55.926Z,98824.30
2017-07-23T04:10:23.388Z,98823.33
2017-07-23T04:12:50.874Z,98824.11
2017-07-23T04:15:18.329Z,98835.54
2017-07-23T04:17:45.798Z,98844.20
2017-07-23T04:20:13.244Z,98844.82
2017-07-23T04:22:40.751Z,98856.27
2017-07-23T04:25:08.205Z,98861.90
2017-07-23T04:27:35.694Z,98858.98
2017-07-23T04:30:03.152Z,98852.96
2017-07-23T04:32:30.647Z,98848.89
2017-07-23T04:34:58.109Z,98842.50
2017-07-23T04:37:25.589Z,98837.41
2017-07-23T04:39:53.058Z,98851.95
2017-07-23T04:42:21.311Z,98854.28
2017-07-23T04:44:49.009Z,98856.41
2017-07-23T04:47:16.475Z,98874.22
2017-07-23T04:49:43.924Z,98864.94
2017-07-23T04:52:11.411Z,98868.38
2017-07-23T04:54:38.898Z,98873.25
2017-07-23T04:57:06.343Z,98870.71
2017-07-23T04:59:33.828Z,98873.41
2017-07-23T05:02:01.300Z,98875.79
2017-07-23T05:04:28.746Z,98879.23
2017-07-23T05:06:56.249Z,98880.41
2017-07-23T05:09:23.705Z,98883.70
2017-07-23T05:11:51.188Z,98879.63
2017-07-23T05:14:18.644Z,98885.84
2017-07-23T05:16:46.130Z,98877.88
2017-07-23T05:19:13.615Z,98887.16
2017-07-23T05:21:41.090Z,98881.16
2017-07-23T05:24:08.538Z,98871.26
2017-07-23T05:26:36.018Z,98881.72
2017-07-23T05:29:03.518Z,98887.14
2017-07-23T05:31:30.981Z,98883.84
2017-07-23T05:33:58.449Z,98891.98
2017-07-23T05:36:25.887Z,98890.81
2017-07-23T05:38:53.353Z,98896.06
2017-07-23T05:41:20.825Z,98903.22
2017-07-23T05:43:48.289Z,98900.70
2017-07-23T05:46:15.770Z,98891.02
2017-07-23T05:48:43.209Z,98894.86
2017-07-23T05:51:10.699Z,98903.97
2017-07-23T05:53:38.198Z,98900.51
2017-07-23T05:56:05.659Z,98899.52
2017-07-23T05:58:33.134Z,98903.78
2017-07-23T06:01:00.617Z,98889.19
2017-07-23T06:03:28.061Z,98892.70
2017-07-23T06:05:55.530Z,98897.34
2017-07-23T06:08:22.984Z,98892.12
2017-07-23T06:10:50.449Z,98901.98
2017-07-23T06:13:18.172Z,98901.63
2017-07-23T06:15:45.618Z,98907.41
2017-07-23T06:18:13.106Z,98909.14
2017-07-23T06:20:40.563Z,98915.19
2017-07-23T06:23:08.041Z,98925.80
2017-07-23T06:25:35.536Z,98923.08
2017-07-23T06:28:02.997Z,98928.91
2017-07-23T06:30:30.490Z,98927.57
2017-07-23T06:32:57.942Z,98932.41
2017-07-23T06:35:25.420Z,98940.31
2017-07-23T06:37:52.873Z,98942.23
2017-07-23T06:40:20.421Z,98949.75
2017-07-23T06:42:48.744Z,98944.94
2017-07-23T06:45:16.323Z,98948.25
2017-07-23T06:47:43.760Z,98947.26
2017-07-23T06:50:11.215Z,98947.27
2017-07-23T06:52:38.710Z,98958.67
2017-07-23T06:55:06.201Z,98956.19
2017-07-23T06:57:33.714Z,98956.97
2017-07-23T07:00:01.179Z,98964.10
2017-07-23T07:02:28.657Z,98955.77
2017-07-23T07:04:56.098Z,98960.41
2017-07-23T07:07:23.571Z,98963.13
2017-07-23T07:09:51.030Z,98956.53
2017-07-23T07:12:18.483Z,98969.69
2017-07-23T07:14:45.977Z,98967.94
2017-07-23T07:17:13.449Z,98960.38
2017-07-23T07:19:40.933Z,98966.80
2017-07-23T07:22:08.369Z,98963.84
2017-07-23T07:24:35.860Z,98964.23
2017-07-23T07:27:03.313Z,98973.56
2017-07-23T07:29:30.794Z,98975.11
2017-07-23T07:31:58.230Z,98976.06
2017-07-23T07:34:25.694Z,98972.74
2017-07-23T07:36:53.132Z,98977.23
2017-07-23T07:39:20.613Z,98973.56
2017-07-23T07:41:48.082Z,98971.03
2017-07-23T07:44:15.575Z,98968.31
2017-07-23T07:46:43.027Z,98967.92
2017-07-23T07:49:10.498Z,98967.71
2017-07-23T07:51:37.972Z,98967.51
2017-07-23T07:54:06.049Z,98960.74
2017-07-23T07:56:33.534Z,98965.19
2017-07-23T07:59:00.998Z,98968.69
2017-07-23T08:01:28.473Z,98974.69
2017-07-23T08:03:55.917Z,98971.97
2017-07-23T08:06:23.410Z,98977.79
2017-07-23T08:08:50.881Z,98973.33
2017-07-23T08:11:18.383Z,98968.69
2017-07-23T08:13:45.870Z,98972.14
2017-07-23T08:16:13.357Z,98979.92
2017-07-23T08:18:40.788Z,98969.83
2017-07-23T08:21:08.246Z,98972.73
2017-07-23T08:23:35.700Z,98983.77
2017-07-23T08:26:03.292Z,98976.02
2017-07-23T08:28:30.754Z,98975.23
2017-07-23T08:30:58.198Z,98976.18
2017-07-23T08:33:25.686Z,98980.81
2017-07-23T08:35:53.120Z,98981.02
2017-07-23T08:38:20.600Z,98982.96
2017-07-23T08:40:48.082Z,98985.04
2017-07-23T08:43:15.744Z,98985.48
2017-07-23T08:45:43.234Z,98989.34
2017-07-23T08:48:10.697Z,98980.05
2017-07-23T08:50:38.174Z,98980.64
2017-07-23T08:53:05.774Z,98985.67
2017-07-23T08:55:33.261Z,98997.30
2017-07-23T08:58:00.711Z,98995.72
2017-07-23T09:00:28.173Z,98999.59
2017-07-23T09:02:55.697Z,98999.59
2017-07-23T09:05:24.241Z,99000.35
2017-07-23T09:07:51.691Z,98998.98
2017-07-23T09:10:19.164Z,99005.17
2017-07-23T09:12:46.611Z,99002.06
2017-07-23T09:15:14.085Z,98997.04
2017-07-23T09:17:41.854Z,98997.02
2017-07-23T09:20:09.306Z,99008.61
2017-07-23T09:22:36.782Z,98998.55
2017-07-23T09:25:04.282Z,99006.46
2017-07-23T09:27:32.112Z,99009.56
2017-07-23T09:29:59.573Z,99010.19
2017-07-23T09:32:27.064Z,99012.11
2017-07-23T09:34:54.533Z,99013.86
2017-07-23T09:37:22.009Z,99006.66
2017-07-23T09:39:49.476Z,99011.31
2017-07-23T09:42:16.945Z,99012.11
2017-07-23T09:44:44.436Z,99016.16
2017-07-23T09:47:11.876Z,99015.34
2017-07-23T09:49:39.352Z,99005.50
2017-07-23T09:52:06.840Z,99004.13
2017-07-23T09:54:35.030Z,99008.72
2017-07-23T09:57:03.134Z,99007.02
2017-07-23T09:59:30.595Z,99007.61
2017-07-23T10:01:58.089Z,99007.61
2017-07-23T10:04:25.557Z,99003.70
2017-07-23T10:07:39.620Z,98993.83
2017-07-23T10:10:07.089Z,98998.46
2017-07-23T10:12:34.536Z,99000.78
2017-07-23T10:15:01.986Z,99001.72
2017-07-23T10:17:29.465Z,99001.55
2017-07-23T10:19:56.909Z,99002.32
2017-07-23T10:22:24.386Z,98997.88
2017-07-23T10:24:51.843Z,99001.95
2017-07-23T10:27:19.384Z,98997.89
2017-07-23T10:29:48.609Z,99002.52
2017-07-23T10:32:16.194Z,99000.04
2017-07-23T10:34:43.650Z,98996.50
2017-07-23T10:37:11.110Z,98998.42
2017-07-23T10:39:39.160Z,99006.95
2017-07-23T10:42:06.605Z,98997.48
2017-07-23T10:44:34.922Z,98990.53
2017-07-23T10:47:02.411Z,99000.77
2017-07-23T10:49:29.931Z,98993.97
2017-07-23T10:51:57.399Z,98993.59
2017-07-23T10:54:24.877Z,99005.64
2017-07-23T10:56:52.370Z,99002.72
2017-07-23T10:59:20.030Z,99001.53
2017-07-23T11:01:47.473Z,99013.34
2017-07-23T11:04:14.986Z,99017.39
2017-07-23T11:06:42.492Z,99017.02
2017-07-23T11:09:09.953Z,99011.98
2017-07-23T11:11:37.452Z,99017.63
2017-07-23T11:14:04.926Z,99010.45
2017-07-23T11:16:32.397Z,99009.69
2017-07-23T11:18:59.843Z,99005.20
2017-07-23T11:21:27.321Z,99002.72
2017-07-23T11:23:54.765Z,99006.34
2017-07-23T11:26:22.236Z,98998.20
2017-07-23T11:28:49.749Z,98984.85
2017-07-23T11:31:17.245Z,98996.67
2017-07-23T11:33:44.708Z,98985.98
2017-07-23T11:36:12.162Z,98988.13
2017-07-23T11:38:40.004Z,98980.02
2017-07-23T11:41:08.983Z,98975.14
2017-07-23T11:43:36.484Z,98976.28
2017-07-23T11:46:06.392Z,98982.33
2017-07-23T11:48:34.886Z,98993.57
2017-07-23T11:51:02.342Z,98981.17
2017-07-23T11:53:29.801Z,98979.02
2017-07-23T11:55:57.287Z,98965.65
2017-07-23T11:58:24.789Z,98974.55
2017-07-23T12:00:52.803Z,98974.18
2017-07-23T12:03:20.271Z,98968.93
2017-07-23T12:05:47.750Z,98984.02
2017-07-23T12:08:15.214Z,98975.10
2017-07-23T12:10:43.373Z,98973.75
2017-07-23T12:13:10.868Z,98970.05
2017-07-23T12:15:39.001Z,98963.28
2017-07-23T12:18:07.482Z,98976.85
2017-07-23T12:20:34.969Z,98964.63
2017-07-23T12:23:03.010Z,98958.86
2017-07-23T12:25:30.569Z,98953.59
2017-07-23T12:28:01.074Z,98968.33
2017-07-23T12:30:28.569Z,98965.05
2017-07-23T12:32:56.141Z,98965.85
2017-07-23T12:35:23.609Z,98960.38
2017-07-23T12:37:51.052Z,98964.63
2017-07-23T12:40:19.448Z,98974.69
2017-07-23T12:42:47.638Z,98968.72
2017-07-23T12:45:16.743Z,98966.58
2017-07-23T12:47:46.978Z,98970.23
2017-07-23T12:50:17.224Z,98961.55
2017-07-23T12:52:44.713Z,98975.67
2017-07-23T12:55:12.188Z,98971.02
2017-07-23T12:57:39.681Z,98966.58
2017-07-23T13:00:07.162Z,98982.45
2017-07-23T13:02:34.620Z,98978.48
2017-07-23T13:05:02.120Z,98985.14
2017-07-23T13:07:29.565Z,98966.33
2017-07-23T13:09:59.742Z,98964.98
2017-07-23T13:12:28.160Z,98953.91
2017-07-23T13:14:56.274Z,98955.27
2017-07-23T13:17:23.805Z,98960.69
2017-07-23T13:19:51.471Z,98957.02
2017-07-23T13:22:18.942Z,98960.91
2017-07-23T13:24:46.409Z,98974.98
2017-07-23T13:27:13.849Z,98959.73
2017-07-23T13:29:41.325Z,98955.09
2017-07-23T13:32:08.792Z,98955.66
2017-07-23T13:34:36.282Z,98948.47
2017-07-23T13:37:03.758Z,98940.75
2017-07-23T13:39:31.202Z,98941.20
2017-07-23T13:41:58.680Z,98934.68
2017-07-23T13:44:26.154Z,98933.15
2017-07-23T13:46:53.660Z,98960.66
2017-07-23T13:49:21.117Z,98949.58
2017-07-23T13:51:48.640Z,98948.83
2017-07-23T13:54:16.094Z,98947.23
2017-07-23T13:56:43.575Z,98938.50
2017-07-23T13:59:11.070Z,98946.24
2017-07-23T14:01:38.520Z,98942.09
2017-07-23T14:04:06.000Z,98942.63
2017-07-23T14:06:33.463Z,98942.66
2017-07-23T14:09:00.940Z,98939.22
2017-07-23T14:11:28.381Z,98931.95
2017-07-23T14:13:55.858Z,98933.22
2017-07-23T14:16:23.326Z,98931.23
2017-07-23T14:18:50.812Z,98921.88
2017-07-23T14:21:18.252Z,98936.74
2017-07-23T14:23:46.178Z,98925.72
2017-07-23T14:26:13.628Z,98929.48
2017-07-23T14:28:41.089Z,98922.33
2017-07-23T14:31:08.581Z,98918.98
2017-07-23T14:33:36.366Z,98925.83
2017-07-23T14:36:03.990Z,98926.09
2017-07-23T14:38:31.478Z,98918.61
2017-07-23T14:40:59.106Z,98927.08
2017-07-23T14:43:26.591Z,98918.22
2017-07-23T14:45:54.064Z,98926.18
2017-07-23T14:48:21.527Z,98926.77
2017-07-23T14:50:49.134Z,98915.82
2017-07-23T14:53:16.626Z,98910.95
2017-07-23T14:55:44.081Z,98910.21
2017-07-23T14:58:11.570Z,98904.91
2017-07-23T15:00:39.021Z,98905.34
2017-07-23T15:03:06.697Z,98905.03
2017-07-23T15:05:34.162Z,98901.88
2017-07-23T15:08:01.823Z,98895.75
2017-07-23T15:10:29.404Z,98898.92
2017-07-23T15:12:56.901Z,98903.46
2017-07-23T15:15:24.349Z,98899.41
2017-07-23T15:17:51.810Z,98901.63
2017-07-23T15:20:19.273Z,98894.30
2017-07-23T15:22:46.728Z,98894.63
2017-07-23T15:25:14.226Z,98895.56
2017-07-23T15:27:41.665Z,98905.77
2017-07-23T15:30:09.150Z,98903.66
2017-07-23T15:32:36.619Z,98902.41
2017-07-23T15:35:04.116Z,98895.86
2017-07-23T15:37:31.566Z,98890.77
2017-07-23T15:39:59.052Z,98899.99
2017-07-23T15:42:26.513Z,98888.61
2017-07-23T15:47:27.766Z,98885.80
2017-07-23T15:49:55.270Z,98883.30
2017-07-23T15:52:23.340Z,98895.66
2017-07-23T15:54:50.830Z,98879.20
2017-07-23T15:57:18.282Z,98862.89
2017-07-23T15:59:45.899Z,98867.20
2017-07-23T16:02:13.359Z,98864.36
2017-07-23T16:04:40.838Z,98858.62
2017-07-23T16:07:08.328Z,98853.94
2017-07-23T16:09:35.790Z,98860.27
2017-07-23T16:12:03.267Z,98862.98
2017-07-23T16:14:30.712Z,98865.62
2017-07-23T16:16:58.180Z,98857.03
2017-07-23T16:19:25.677Z,98856.98
2017-07-23T16:21:53.116Z,98862.83
2017-07-23T16:24:20.593Z,98850.58
2017-07-23T16:26:48.050Z,98851.72
2017-07-23T16:29:15.676Z,98852.25
2017-07-23T16:31:43.145Z,98846.78
2017-07-23T16:34:10.619Z,98843.75
2017-07-23T16:36:38.076Z,98840.00
2017-07-23T16:39:05.564Z,98844.69
2017-07-23T16:41:33.024Z,98843.47
2017-07-23T16:44:00.537Z,98846.23
2017-07-23T16:46:28.030Z,98839.45
2017-07-23T16:48:55.486Z,98838.52
2017-07-23T16:51:23.065Z,98838.95
2017-07-23T16:53:50.539Z,98831.61
2017-07-23T16:56:17.981Z,98844.30
2017-07-23T16:58:45.468Z,98842.38
2017-07-23T17:01:12.918Z,98826.91
2017-07-23T17:03:40.394Z,98834.55
2017-07-23T17:06:07.871Z,98828.59
2017-07-23T17:08:35.357Z,98829.81
2017-07-23T17:11:02.810Z,98822.39
2017-07-23T17:13:30.297Z,98823.59
2017-07-23T17:15:57.763Z,98832.65
2017-07-23T17:18:25.255Z,98821.00
2017-07-23T17:20:52.719Z,98824.15
2017-07-23T17:23:20.257Z,98822.55
2017-07-23T17:25:47.728Z,98826.09
2017-07-23T17:28:15.203Z,98822.87
2017-07-23T17:30:42.702Z,98827.58
2017-07-23T17:33:10.154Z,98824.59
2017-07-23T17:35:37.634Z,98821.67
2017-07-23T17:38:05.110Z,98830.30
2017-07-23T17:40:32.597Z,98821.00
2017-07-23T17:43:00.048Z,98826.45
2017-07-23T17:45:27.525Z,98818.77
2017-07-23T17:47:54.970Z,98820.44
2017-07-23T17:50:22.441Z,98827.22
2017-07-23T17:52:49.926Z,98820.25
2017-07-23T17:55:17.394Z,98822.11
2017-07-23T17:57:44.872Z,98826.20
2017-07-23T18:00:12.430Z,98822.28
2017-07-23T18:02:39.980Z,98816.62
2017-07-23T18:05:07.438Z,98816.48
2017-07-23T18:07:34.934Z,98811.78
2017-07-23T18:10:02.382Z,98806.20
2017-07-23T18:12:29.922Z,98811.35
2017-07-23T18:14:57.363Z,98816.25
2017-07-23T18:17:24.839Z,98813.51
2017-07-23T18:19:52.322Z,98805.76
2017-07-23T18:22:19.780Z,98810.11
2017-07-23T18:24:47.296Z,98801.30
2017-07-23T18:27:14.750Z,98799.11
2017-07-23T18:29:42.251Z,98806.27
2017-07-23T18:32:09.733Z,98807.25
2017-07-23T18:34:37.215Z,98806.55
2017-07-23T18:37:04.739Z,98799.80
2017-07-23T18:39:32.229Z,98801.53
2017-07-23T18:41:59.687Z,98794.39
2017-07-23T18:44:27.192Z,98799.36
2017-07-23T18:46:54.661Z,98797.63
2017-07-23T18:49:22.115Z,98799.72
2017-07-23T18:51:49.610Z,98803.75
2017-07-23T18:54:17.113Z,98797.66
2017-07-23T18:56:45.302Z,98799.32
2017-07-23T18:59:12.743Z,98803.34
2017-07-23T19:01:40.226Z,98805.63
2017-07-23T19:04:07.703Z,98807.78
2017-07-23T19:06:35.836Z,98806.62
2017-07-23T19:09:03.342Z,98812.52
2017-07-23T19:11:30.825Z,98810.70
2017-07-23T19:13:58.314Z,98809.02
2017-07-23T19:16:26.109Z,98805.08
2017-07-23T19:18:53.613Z,98803.00
2017-07-23T19:21:21.067Z,98806.61
2017-07-23T19:23:48.555Z,98798.19
2017-07-23T19:26:16.009Z,98801.34
2017-07-23T19:28:43.502Z,98800.11
2017-07-23T19:31:10.954Z,98798.92
2017-07-23T19:33:38.551Z,98799.71
2017-07-23T19:36:06.031Z,98805.06
2017-07-23T19:38:33.502Z,98808.08
2017-07-23T19:41:00.983Z,98801.45
2017-07-23T19:43:28.436Z,98800.90
2017-07-23T19:45:55.935Z,98794.78
2017-07-23T19:48:23.452Z,98794.47
2017-07-23T19:50:50.958Z,98794.65
2017-07-23T19:53:18.463Z,98793.60
2017-07-23T19:55:45.944Z,98798.11
2017-07-23T19:58:13.433Z,98800.92
2017-07-23T20:00:40.887Z,98801.92
2017-07-23T20:03:08.401Z,98801.52
2017-07-23T20:05:35.858Z,98799.28
2017-07-23T20:08:03.342Z,98802.05
2017-07-23T20:10:30.849Z,98800.61
2017-07-23T20:12:58.338Z,98797.34
2017-07-23T20:15:25.811Z,98800.67
2017-07-23T20:17:53.292Z,98801.06
2017-07-23T20:20:20.737Z,98795.13
2017-07-23T20:22:48.234Z,98799.23
2017-07-23T20:25:16.059Z,98790.28
2017-07-23T20:27:43.515Z,98783.56
2017-07-23T20:30:11.027Z,98788.52
2017-07-23T20:32:38.486Z,98786.38
2017-07-23T20:35:06.261Z,98789.02
2017-07-23T20:37:33.714Z,98787.19
2017-07-23T20:40:01.181Z,98779.84
2017-07-23T20:42:28.642Z,98787.61
2017-07-23T20:44:56.151Z,98789.83
2017-07-23T20:47:23.657Z,98783.44
2017-07-23T20:49:51.138Z,98785.50
2017-07-23T20:52:18.642Z,98786.31
2017-07-23T20:54:46.127Z,98785.33
2017-07-23T20:57:13.761Z,98777.91
2017-07-23T20:59:41.248Z,98773.28
2017-07-23T21:02:08.721Z,98768.16
2017-07-23T21:04:36.190Z,98770.97
2017-07-23T21:07:03.680Z,98776.44
2017-07-23T21:09:31.122Z,98773.73
2017-07-23T21:11:58.593Z,98772.41
2017-07-23T21:14:26.041Z,98773.37
2017-07-23T21:16:53.549Z,98771.14
2017-07-23T21:19:21.029Z,98766.58
2017-07-23T21:21:48.513Z,98766.33
2017-07-23T21:24:15.994Z,98757.75
2017-07-23T21:26:43.448Z,98753.33
2017-07-23T21:29:10.930Z,98752.17
2017-07-23T21:31:38.370Z,98750.06
2017-07-23T21:34:05.850Z,98748.55
2017-07-23T21:36:33.313Z,98744.43
2017-07-23T21:39:00.826Z,98745.98
2017-07-23T21:41:28.326Z,98747.42
2017-07-23T21:43:55.781Z,98743.92
2017-07-23T21:46:23.306Z,98739.17
2017-07-23T21:48:50.755Z,98741.08
2017-07-23T21:51:18.257Z,98734.61
2017-07-23T21:53:45.752Z,98731.67
2017-07-23T21:56:13.223Z,98731.88
2017-07-23T21:58:40.678Z,98730.84
2017-07-23T22:01:08.145Z,98731.53
2017-07-23T22:03:36.229Z,98729.47
2017-07-23T22:06:03.725Z,98736.88
2017-07-23T22:08:31.184Z,98735.15
2017-07-23T22:10:58.670Z,98722.81
2017-07-23T22:13:26.137Z,98725.31
2017-07-23T22:15:53.578Z,98727.45
2017-07-23T22:18:21.062Z,98719.38
2017-07-23T22:20:48.534Z,98716.75
2017-07-23T22:23:16.010Z,98711.95
2017-07-23T22:25:43.501Z,98713.67
2017-07-23T22:28:10.957Z,98708.86
2017-07-23T22:30:38.452Z,98701.77
2017-07-23T22:33:05.929Z,98696.52
2017-07-23T22:35:33.379Z,98693.27
2017-07-23T22:38:00.860Z,98690.99
2017-07-23T22:40:28.314Z,98692.16
2017-07-23T22:42:55.809Z,98693.51
2017-07-23T22:45:23.293Z,98692.96
2017-07-23T22:47:50.749Z,98681.77
2017-07-23T22:50:18.629Z,98676.94
2017-07-23T22:52:46.100Z,98677.54
2017-07-23T22:55:13.564Z,98677.71
2017-07-23T22:57:41.086Z,98672.71
2017-07-23T23:00:08.542Z,98668.64
2017-07-23T23:02:36.038Z,98667.11
2017-07-23T23:05:03.515Z,98669.05
2017-07-23T23:07:30.951Z,98668.66
2017-07-23T23:09:58.721Z,98664.16
2017-07-23T23:12:26.194Z,98665.58
2017-07-23T23:14:53.646Z,98663.88
2017-07-23T23:17:21.163Z,98664.07
2017-07-23T23:19:48.621Z,98657.88
2017-07-23T23:22:16.111Z,98652.94
2017-07-23T23:24:43.584Z,98653.21
2017-07-23T23:27:11.049Z,98651.80
2017-07-23T23:29:38.545Z,98653.23
2017-07-23T23:32:06.515Z,98647.65
2017-07-23T23:34:33.998Z,98650.16
2017-07-23T23:37:01.672Z,98649.44
2017-07-23T23:39:29.131Z,98644.55
2017-07-23T23:41:56.602Z,98648.69
2017-07-23T23:44:24.081Z,98643.25
2017-07-23T23:46:51.607Z,98641.89
2017-07-23T23:49:19.104Z,98640.95
2017-07-23T23:51:46.558Z,98641.33
2017-07-23T23:54:14.021Z,98638.94
2017-07-23T23:56:41.462Z,98634.03
2017-07-23T23:59:08.972Z,98633.23
